Clearwater, Washington
Current Conditions -  °F | °C
As of 8:20 PM on Wednesday 22 Oct 2014 (Local Time) from KUIL Reporting Station
Light Rain Light Rain  
Wind Chill: 50°   Ceiling: 3800
Heat Index: 50°   Visibility: 2mi
Dew Point: 49°   Wind: 7mph
Humidity: 96%   Direction: 270°W
Pressure: 29.55"   Gusts: NA
Location:  47.9519°N, 124.29°W
Report Text: KUIL 230320Z AUTO 27006KT 2SM -RA BR SCT006 OVC038 10/09 A2955 RMK AO2 RAB07 P0011 T01000094
Loading
Personal Weather Stations






























Interactive Weather Map
Tropical Storm Tracking
New forecast layout! Learn more

10-Day Weather Forecast

Advertisements
Track Severe Weather on mobile